Погода Дерговона неделю

Витебская область, Белоруссия

24 - 30 мая
  • 24мая
    Сегодня
    +11°
    +24°
    Ясно и безоблачно
    ВремяПогодаТемператураВлажностьДавлениеВетер, м/сВероятность осадков
    00:00Небольшая облачность+16°C79 %759 мм3.0 м/с2 %
    03:00Небольшая облачность+14°C64 %760 мм3.7 м/с2 %
    06:00Ясно и безоблачно+13°C68 %761 мм3.6 м/с2 %
    09:00Ясно и безоблачно+18°C62 %761 мм4.1 м/с2 %
    12:00Ясно и безоблачно+23°C49 %761 мм4.5 м/с2 %
    15:00Ясно и безоблачно+24°C43 %761 мм4.7 м/с2 %
    18:00Ясно и безоблачно+23°C44 %760 мм4.5 м/с2 %
    21:00Ясно и безоблачно+19°C58 %760 мм3.2 м/с2 %
  • 25мая
    Суббота
    +11°
    +25°
    Ясно и безоблачно
    ВремяПогодаТемператураВлажностьДавлениеВетер, м/сВероятность осадков
    00:00Ясно и безоблачно+15°C63 %760 мм3.7 м/с2 %
    03:00Ясно и безоблачно+13°C69 %760 мм2.7 м/с2 %
    06:00Ясно и безоблачно+12°C74 %760 мм2.5 м/с2 %
    09:00Ясно и безоблачно+18°C60 %760 мм2.4 м/с2 %
    12:00Ясно и безоблачно+23°C45 %760 мм2.9 м/с2 %
    15:00Ясно и безоблачно+25°C39 %759 мм2.7 м/с2 %
    18:00Практически безоблачно+25°C38 %758 мм2.6 м/с3 %
    21:00Ясно и безоблачно+20°C60 %759 мм2.2 м/с2 %
  • 26мая
    Воскресенье
    +12°
    +26°
    Ясно и безоблачно
    ВремяПогодаТемператураВлажностьДавлениеВетер, м/сВероятность осадков
    00:00Ясно и безоблачно+15°C75 %758 мм1.6 м/с2 %
    03:00Ясно и безоблачно+13°C86 %759 мм2.1 м/с2 %
    06:00Ясно и безоблачно+13°C87 %759 мм1.7 м/с1 %
    09:00Ясно и безоблачно+20°C62 %759 мм0.2 м/с2 %
    12:00Ясно и безоблачно+24°C40 %760 мм1.3 м/с2 %
    15:00Ясно и безоблачно+25°C37 %759 мм1.2 м/с2 %
    18:00Небольшая облачность+25°C36 %758 мм1.6 м/с2 %
    21:00Ясно и безоблачно+20°C59 %758 мм2.2 м/с2 %
  • 27мая
    Понедельник
    +14°
    +26°
    Ясно и безоблачно
    ВремяПогодаТемператураВлажностьДавлениеВетер, м/сВероятность осадков
    00:00Практически безоблачно+19°C56 %758 мм1.0 м/с2 %
    03:00Ясно и безоблачно+14°C82 %759 мм2.6 м/с2 %
    06:00Ясно и безоблачно+14°C83 %759 мм1.4 м/с2 %
    09:00Ясно и безоблачно+21°C51 %759 мм0.6 м/с2 %
    12:00Ясно и безоблачно+25°C34 %759 мм1.9 м/с2 %
    15:00Ясно и безоблачно+25°C35 %758 мм2.4 м/с3 %
    18:00Практически безоблачно+25°C39 %758 мм2.0 м/с13 %
    21:00Ясно и безоблачно+21°C61 %757 мм1.9 м/с11 %
  • 28мая
    Вторник
    +13°
    +26°
    Облачно с прояснениями
    ВремяПогодаТемператураВлажностьДавлениеВетер, м/сВероятность осадков
    00:00Ясно и безоблачно+17°C74 %757 мм2.4 м/с2 %
    03:00Ясно и безоблачно+15°C80 %758 мм2.2 м/с2 %
    06:00Ясно и безоблачно+15°C87 %757 мм0.8 м/с2 %
    09:00Ясно и безоблачно+21°C59 %758 мм0.8 м/с2 %
    12:00Ясно и безоблачно+25°C45 %757 мм2.2 м/с6 %
    15:00Облачно с прояснениями+26°C44 %757 мм2.3 м/с19 %
    18:00Небольшая облачность, возможен дождь с грозой+24°C47 %756 мм2.4 м/с29 %
    21:00Практически безоблачно+21°C68 %756 мм1.3 м/с14 %
Мы используем cookies
Соглашаюсь